Weather at Black River Ranch Airport

Public forecast

Using degrees Fahrenheit for public forecast. Weather courtesy of forecast.io.

Closest aviation weather report (METAR) to Black River Ranch Airport

Closest report is Gaylord Regional Airport, 19.5 nm (36.2 km) SW. Retrieved 2021/10/23 02:53 UTC (34 minutes ago):

KGLR 230253Z AUTO 00000KT 10SM SCT070 02/M01 A2998 RMK AO2 SLP166 T00221011 58003

Closest aviation forecast (TAF) to Black River Ranch Airport

Closest forecast is Pellston Regional Airport of Emmet County Airport, 30.1 nm (55.8 km) NW. Retrieved 2021-10-23 00:22 UTC (3 hours ago):

TAF KPLN 222320Z 2300/2324 VRB03KT P6SM VCSH SCT025 BKN035 FM231500 30005KT P6SM VCSH BKN035